sensor_id;sensor_type;location;lat;lon;timestamp;temperature;humidity
65046;DHT22;54657;52.022;5.534;2023-02-28T00:00:04;2.50;65.90
65046;DHT22;54657;52.022;5.534;2023-02-28T00:02:41;2.50;65.80
65046;DHT22;54657;52.022;5.534;2023-02-28T00:05:08;2.60;65.80
65046;DHT22;54657;52.022;5.534;2023-02-28T00:07:34;2.60;65.70
65046;DHT22;54657;52.022;5.534;2023-02-28T00:10:00;2.60;65.60
65046;DHT22;54657;52.022;5.534;2023-02-28T00:12:26;2.70;65.60
65046;DHT22;54657;52.022;5.534;2023-02-28T00:14:52;2.70;65.60
65046;DHT22;54657;52.022;5.534;2023-02-28T00:17:18;2.60;65.70
65046;DHT22;54657;52.022;5.534;2023-02-28T00:19:47;2.60;65.70
65046;DHT22;54657;52.022;5.534;2023-02-28T00:22:14;2.70;65.60
65046;DHT22;54657;52.022;5.534;2023-02-28T00:24:39;2.70;65.50
65046;DHT22;54657;52.022;5.534;2023-02-28T00:27:05;2.50;65.80
65046;DHT22;54657;52.022;5.534;2023-02-28T00:29:30;2.50;66.10
65046;DHT22;54657;52.022;5.534;2023-02-28T00:31:56;2.40;66.40
65046;DHT22;54657;52.022;5.534;2023-02-28T00:34:22;2.50;66.30
65046;DHT22;54657;52.022;5.534;2023-02-28T00:36:47;2.70;66.20
65046;DHT22;54657;52.022;5.534;2023-02-28T00:39:15;2.70;66.10
65046;DHT22;54657;52.022;5.534;2023-02-28T00:41:41;2.70;65.90
65046;DHT22;54657;52.022;5.534;2023-02-28T00:44:07;2.70;65.80
65046;DHT22;54657;52.022;5.534;2023-02-28T00:46:32;2.50;65.70
65046;DHT22;54657;52.022;5.534;2023-02-28T00:48:58;2.40;66.40
65046;DHT22;54657;52.022;5.534;2023-02-28T00:51:23;2.40;66.70
65046;DHT22;54657;52.022;5.534;2023-02-28T00:53:49;2.50;66.90
65046;DHT22;54657;52.022;5.534;2023-02-28T00:56:15;2.60;66.90
65046;DHT22;54657;52.022;5.534;2023-02-28T00:58:40;2.60;66.70
65046;DHT22;54657;52.022;5.534;2023-02-28T01:01:06;2.70;66.60
65046;DHT22;54657;52.022;5.534;2023-02-28T01:03:32;2.70;66.40
65046;DHT22;54657;52.022;5.534;2023-02-28T01:05:58;2.90;66.30
65046;DHT22;54657;52.022;5.534;2023-02-28T01:08:24;3.00;66.30
65046;DHT22;54657;52.022;5.534;2023-02-28T01:10:51;3.00;66.10
65046;DHT22;54657;52.022;5.534;2023-02-28T01:13:17;3.10;66.00
65046;DHT22;54657;52.022;5.534;2023-02-28T01:15:50;3.00;65.90
65046;DHT22;54657;52.022;5.534;2023-02-28T01:18:17;3.10;66.00
65046;DHT22;54657;52.022;5.534;2023-02-28T01:20:42;3.10;66.00
65046;DHT22;54657;52.022;5.534;2023-02-28T01:23:08;3.20;66.00
65046;DHT22;54657;52.022;5.534;2023-02-28T01:25:35;3.20;66.00
65046;DHT22;54657;52.022;5.534;2023-02-28T01:28:01;3.20;66.00
65046;DHT22;54657;52.022;5.534;2023-02-28T01:30:27;3.20;66.00
65046;DHT22;54657;52.022;5.534;2023-02-28T01:32:53;3.30;65.90
65046;DHT22;54657;52.022;5.534;2023-02-28T01:35:19;3.30;65.90
65046;DHT22;54657;52.022;5.534;2023-02-28T01:37:45;3.40;66.00
65046;DHT22;54657;52.022;5.534;2023-02-28T01:40:12;3.40;65.80
65046;DHT22;54657;52.022;5.534;2023-02-28T01:42:38;3.40;65.90
65046;DHT22;54657;52.022;5.534;2023-02-28T01:47:44;3.50;66.10
65046;DHT22;54657;52.022;5.534;2023-02-28T01:50:20;3.50;65.90
65046;DHT22;54657;52.022;5.534;2023-02-28T01:52:47;3.40;66.10
65046;DHT22;54657;52.022;5.534;2023-02-28T01:55:15;3.50;66.20
65046;DHT22;54657;52.022;5.534;2023-02-28T01:57:47;3.50;66.10
65046;DHT22;54657;52.022;5.534;2023-02-28T02:00:16;3.50;66.00
65046;DHT22;54657;52.022;5.534;2023-02-28T02:02:44;3.60;66.00
65046;DHT22;54657;52.022;5.534;2023-02-28T02:05:15;3.70;66.00
65046;DHT22;54657;52.022;5.534;2023-02-28T02:07:43;3.70;65.90
65046;DHT22;54657;52.022;5.534;2023-02-28T02:10:19;3.70;65.90
65046;DHT22;54657;52.022;5.534;2023-02-28T02:18:00;3.70;66.20
65046;DHT22;54657;52.022;5.534;2023-02-28T02:20:32;3.70;66.20
65046;DHT22;54657;52.022;5.534;2023-02-28T02:23:15;3.60;66.30
65046;DHT22;54657;52.022;5.534;2023-02-28T02:25:58;3.50;66.80
65046;DHT22;54657;52.022;5.534;2023-02-28T02:31:56;3.50;67.50
65046;DHT22;54657;52.022;5.534;2023-02-28T02:42:55;3.70;67.00
65046;DHT22;54657;52.022;5.534;2023-02-28T02:48:07;3.70;67.20
65046;DHT22;54657;52.022;5.534;2023-02-28T02:50:41;3.70;67.00
65046;DHT22;54657;52.022;5.534;2023-02-28T02:53:09;3.70;67.20
65046;DHT22;54657;52.022;5.534;2023-02-28T02:55:39;3.70;67.20
65046;DHT22;54657;52.022;5.534;2023-02-28T02:58:11;3.80;67.30
65046;DHT22;54657;52.022;5.534;2023-02-28T03:00:46;3.80;67.10
65046;DHT22;54657;52.022;5.534;2023-02-28T03:03:13;3.90;67.30
65046;DHT22;54657;52.022;5.534;2023-02-28T03:05:47;3.90;67.00
65046;DHT22;54657;52.022;5.534;2023-02-28T03:08:13;4.00;67.60
65046;DHT22;54657;52.022;5.534;2023-02-28T03:10:43;3.90;66.90
65046;DHT22;54657;52.022;5.534;2023-02-28T03:13:11;3.90;67.10
65046;DHT22;54657;52.022;5.534;2023-02-28T03:21:38;3.80;67.90
65046;DHT22;54657;52.022;5.534;2023-02-28T03:24:19;3.80;68.20
65046;DHT22;54657;52.022;5.534;2023-02-28T03:26:54;3.80;68.10
65046;DHT22;54657;52.022;5.534;2023-02-28T03:29:28;3.90;67.70
65046;DHT22;54657;52.022;5.534;2023-02-28T03:34:46;4.00;67.60
65046;DHT22;54657;52.022;5.534;2023-02-28T03:37:17;4.10;67.90
65046;DHT22;54657;52.022;5.534;2023-02-28T03:39:49;4.10;67.50
65046;DHT22;54657;52.022;5.534;2023-02-28T03:42:22;4.10;67.50
65046;DHT22;54657;52.022;5.534;2023-02-28T03:44:53;4.10;67.50
65046;DHT22;54657;52.022;5.534;2023-02-28T03:47:53;4.20;67.50
65046;DHT22;54657;52.022;5.534;2023-02-28T03:50:22;4.20;68.40
65046;DHT22;54657;52.022;5.534;2023-02-28T03:52:57;4.20;68.00
65046;DHT22;54657;52.022;5.534;2023-02-28T03:55:30;4.20;67.60
65046;DHT22;54657;52.022;5.534;2023-02-28T03:58:05;4.10;67.50
65046;DHT22;54657;52.022;5.534;2023-02-28T04:00:39;4.10;67.60
65046;DHT22;54657;52.022;5.534;2023-02-28T04:03:05;4.20;67.70
65046;DHT22;54657;52.022;5.534;2023-02-28T04:05:31;4.20;67.80
65046;DHT22;54657;52.022;5.534;2023-02-28T04:08:05;4.10;67.60
65046;DHT22;54657;52.022;5.534;2023-02-28T04:10:30;4.10;67.50
65046;DHT22;54657;52.022;5.534;2023-02-28T04:12:56;4.10;67.50
65046;DHT22;54657;52.022;5.534;2023-02-28T04:15:22;4.10;66.80
65046;DHT22;54657;52.022;5.534;2023-02-28T04:17:50;4.10;67.00
65046;DHT22;54657;52.022;5.534;2023-02-28T04:20:15;4.10;66.80
65046;DHT22;54657;52.022;5.534;2023-02-28T04:22:41;4.10;66.80
65046;DHT22;54657;52.022;5.534;2023-02-28T04:25:07;4.10;66.50
65046;DHT22;54657;52.022;5.534;2023-02-28T04:27:33;4.10;66.80
65046;DHT22;54657;52.022;5.534;2023-02-28T04:29:58;4.10;66.60
65046;DHT22;54657;52.022;5.534;2023-02-28T04:32:24;4.00;66.50
65046;DHT22;54657;52.022;5.534;2023-02-28T04:34:49;4.00;66.70
65046;DHT22;54657;52.022;5.534;2023-02-28T04:37:15;4.00;67.00
65046;DHT22;54657;52.022;5.534;2023-02-28T04:39:41;4.10;67.10
65046;DHT22;54657;52.022;5.534;2023-02-28T04:42:07;4.10;66.80
65046;DHT22;54657;52.022;5.534;2023-02-28T04:44:32;4.20;66.80
65046;DHT22;54657;52.022;5.534;2023-02-28T04:46:58;4.20;67.10
65046;DHT22;54657;52.022;5.534;2023-02-28T04:49:25;4.20;66.30
65046;DHT22;54657;52.022;5.534;2023-02-28T04:51:51;4.20;66.50
65046;DHT22;54657;52.022;5.534;2023-02-28T04:54:16;4.10;66.40
65046;DHT22;54657;52.022;5.534;2023-02-28T04:56:43;4.20;66.60
65046;DHT22;54657;52.022;5.534;2023-02-28T04:59:08;4.20;66.50
65046;DHT22;54657;52.022;5.534;2023-02-28T05:01:34;4.20;66.40
65046;DHT22;54657;52.022;5.534;2023-02-28T05:04:03;4.20;66.30
65046;DHT22;54657;52.022;5.534;2023-02-28T05:06:30;4.30;66.30
65046;DHT22;54657;52.022;5.534;2023-02-28T05:08:56;4.30;66.30
65046;DHT22;54657;52.022;5.534;2023-02-28T05:11:29;4.40;66.20
65046;DHT22;54657;52.022;5.534;2023-02-28T05:14:00;4.40;66.10
65046;DHT22;54657;52.022;5.534;2023-02-28T05:16:26;4.40;66.10
65046;DHT22;54657;52.022;5.534;2023-02-28T05:18:51;4.30;66.20
65046;DHT22;54657;52.022;5.534;2023-02-28T05:21:39;4.20;66.30
65046;DHT22;54657;52.022;5.534;2023-02-28T05:24:09;4.10;66.90
65046;DHT22;54657;52.022;5.534;2023-02-28T05:26:37;4.00;67.10
65046;DHT22;54657;52.022;5.534;2023-02-28T05:29:03;3.90;67.40
65046;DHT22;54657;52.022;5.534;2023-02-28T05:31:28;3.80;67.60
65046;DHT22;54657;52.022;5.534;2023-02-28T05:33:54;3.80;67.90
65046;DHT22;54657;52.022;5.534;2023-02-28T05:36:20;3.80;68.00
65046;DHT22;54657;52.022;5.534;2023-02-28T05:38:47;3.90;67.90
65046;DHT22;54657;52.022;5.534;2023-02-28T05:41:13;3.90;67.80
65046;DHT22;54657;52.022;5.534;2023-02-28T05:43:38;4.00;68.00
65046;DHT22;54657;52.022;5.534;2023-02-28T05:46:06;4.10;67.80
65046;DHT22;54657;52.022;5.534;2023-02-28T05:48:34;4.20;67.50
65046;DHT22;54657;52.022;5.534;2023-02-28T05:51:00;4.10;67.30
65046;DHT22;54657;52.022;5.534;2023-02-28T05:53:25;4.10;67.70
65046;DHT22;54657;52.022;5.534;2023-02-28T05:55:51;4.10;67.40
65046;DHT22;54657;52.022;5.534;2023-02-28T05:58:17;4.00;67.60
65046;DHT22;54657;52.022;5.534;2023-02-28T06:00:42;3.90;67.80
65046;DHT22;54657;52.022;5.534;2023-02-28T06:03:08;3.80;68.20
65046;DHT22;54657;52.022;5.534;2023-02-28T06:05:34;3.80;68.10
65046;DHT22;54657;52.022;5.534;2023-02-28T06:07:59;3.80;68.50
65046;DHT22;54657;52.022;5.534;2023-02-28T06:10:25;3.90;68.40
65046;DHT22;54657;52.022;5.534;2023-02-28T06:12:50;4.10;68.10
65046;DHT22;54657;52.022;5.534;2023-02-28T06:15:16;4.20;67.80
65046;DHT22;54657;52.022;5.534;2023-02-28T06:17:43;4.20;67.60
65046;DHT22;54657;52.022;5.534;2023-02-28T06:20:11;4.30;67.60
65046;DHT22;54657;52.022;5.534;2023-02-28T06:22:38;4.40;67.50
65046;DHT22;54657;52.022;5.534;2023-02-28T06:25:05;4.40;67.30
65046;DHT22;54657;52.022;5.534;2023-02-28T06:27:32;4.40;67.20
65046;DHT22;54657;52.022;5.534;2023-02-28T06:29:57;4.30;67.30
65046;DHT22;54657;52.022;5.534;2023-02-28T06:32:23;4.20;67.60
65046;DHT22;54657;52.022;5.534;2023-02-28T06:34:49;4.20;67.80
65046;DHT22;54657;52.022;5.534;2023-02-28T06:37:16;4.20;67.90
65046;DHT22;54657;52.022;5.534;2023-02-28T06:39:41;4.30;67.90
65046;DHT22;54657;52.022;5.534;2023-02-28T06:42:07;4.40;67.80
65046;DHT22;54657;52.022;5.534;2023-02-28T06:44:33;4.40;67.60
65046;DHT22;54657;52.022;5.534;2023-02-28T06:47:03;4.40;67.70
65046;DHT22;54657;52.022;5.534;2023-02-28T06:49:30;4.40;67.90
65046;DHT22;54657;52.022;5.534;2023-02-28T06:51:56;4.40;67.80
65046;DHT22;54657;52.022;5.534;2023-02-28T06:54:21;4.40;67.60
65046;DHT22;54657;52.022;5.534;2023-02-28T06:56:47;4.50;67.60
65046;DHT22;54657;52.022;5.534;2023-02-28T06:59:13;4.50;67.50
65046;DHT22;54657;52.022;5.534;2023-02-28T07:01:39;4.50;67.40
65046;DHT22;54657;52.022;5.534;2023-02-28T07:04:05;4.60;67.40
65046;DHT22;54657;52.022;5.534;2023-02-28T07:06:32;4.60;67.20
65046;DHT22;54657;52.022;5.534;2023-02-28T07:08:57;4.60;67.10
65046;DHT22;54657;52.022;5.534;2023-02-28T07:11:25;4.60;67.10
65046;DHT22;54657;52.022;5.534;2023-02-28T07:13:54;4.70;67.10
65046;DHT22;54657;52.022;5.534;2023-02-28T07:16:20;4.70;67.10
65046;DHT22;54657;52.022;5.534;2023-02-28T07:18:47;4.60;67.30
65046;DHT22;54657;52.022;5.534;2023-02-28T07:21:12;4.50;67.40
65046;DHT22;54657;52.022;5.534;2023-02-28T07:23:38;4.60;67.40
65046;DHT22;54657;52.022;5.534;2023-02-28T07:26:06;4.60;67.50
65046;DHT22;54657;52.022;5.534;2023-02-28T07:28:31;4.70;67.50
65046;DHT22;54657;52.022;5.534;2023-02-28T07:31:02;4.70;67.50
65046;DHT22;54657;52.022;5.534;2023-02-28T07:33:28;4.80;67.30
65046;DHT22;54657;52.022;5.534;2023-02-28T07:36:00;4.90;67.40
65046;DHT22;54657;52.022;5.534;2023-02-28T07:38:26;4.80;67.20
65046;DHT22;54657;52.022;5.534;2023-02-28T07:40:52;4.80;66.80
65046;DHT22;54657;52.022;5.534;2023-02-28T07:43:17;4.80;67.00
65046;DHT22;54657;52.022;5.534;2023-02-28T07:45:43;4.80;67.10
65046;DHT22;54657;52.022;5.534;2023-02-28T07:48:09;4.80;67.00
65046;DHT22;54657;52.022;5.534;2023-02-28T07:50:35;4.90;66.90
65046;DHT22;54657;52.022;5.534;2023-02-28T07:53:01;4.90;67.00
65046;DHT22;54657;52.022;5.534;2023-02-28T07:55:27;5.00;66.90
65046;DHT22;54657;52.022;5.534;2023-02-28T07:57:52;5.00;66.80
65046;DHT22;54657;52.022;5.534;2023-02-28T08:00:18;5.10;66.70
65046;DHT22;54657;52.022;5.534;2023-02-28T08:02:44;5.10;66.50
65046;DHT22;54657;52.022;5.534;2023-02-28T08:05:09;5.10;66.70
65046;DHT22;54657;52.022;5.534;2023-02-28T08:07:35;5.10;66.50
65046;DHT22;54657;52.022;5.534;2023-02-28T08:10:01;5.10;66.50
65046;DHT22;54657;52.022;5.534;2023-02-28T08:12:26;5.10;66.50
65046;DHT22;54657;52.022;5.534;2023-02-28T08:14:52;5.20;67.20
65046;DHT22;54657;52.022;5.534;2023-02-28T08:17:17;5.30;66.50
65046;DHT22;54657;52.022;5.534;2023-02-28T08:19:45;5.30;66.30
65046;DHT22;54657;52.022;5.534;2023-02-28T08:22:11;5.30;65.80
65046;DHT22;54657;52.022;5.534;2023-02-28T08:24:37;5.20;65.60
65046;DHT22;54657;52.022;5.534;2023-02-28T08:27:02;5.10;65.10
65046;DHT22;54657;52.022;5.534;2023-02-28T08:29:28;5.10;65.10
65046;DHT22;54657;52.022;5.534;2023-02-28T08:31:55;5.10;65.10
65046;DHT22;54657;52.022;5.534;2023-02-28T08:34:21;5.10;64.90
65046;DHT22;54657;52.022;5.534;2023-02-28T08:36:46;5.20;64.60
65046;DHT22;54657;52.022;5.534;2023-02-28T08:39:12;5.30;64.30
65046;DHT22;54657;52.022;5.534;2023-02-28T08:41:38;5.40;64.20
65046;DHT22;54657;52.022;5.534;2023-02-28T08:44:03;5.40;63.80
65046;DHT22;54657;52.022;5.534;2023-02-28T08:46:29;5.60;63.70
65046;DHT22;54657;52.022;5.534;2023-02-28T08:48:56;5.60;63.10
65046;DHT22;54657;52.022;5.534;2023-02-28T08:51:25;5.60;62.90
65046;DHT22;54657;52.022;5.534;2023-02-28T08:53:57;5.70;62.40
65046;DHT22;54657;52.022;5.534;2023-02-28T08:56:25;5.70;61.70
65046;DHT22;54657;52.022;5.534;2023-02-28T08:58:51;5.80;61.70
65046;DHT22;54657;52.022;5.534;2023-02-28T09:01:22;5.90;61.40
65046;DHT22;54657;52.022;5.534;2023-02-28T09:03:49;6.00;60.70
65046;DHT22;54657;52.022;5.534;2023-02-28T09:06:16;6.00;60.90
65046;DHT22;54657;52.022;5.534;2023-02-28T09:08:43;6.00;60.60
65046;DHT22;54657;52.022;5.534;2023-02-28T09:11:09;6.00;59.60
65046;DHT22;54657;52.022;5.534;2023-02-28T09:13:35;6.10;59.50
65046;DHT22;54657;52.022;5.534;2023-02-28T09:16:03;6.20;60.30
65046;DHT22;54657;52.022;5.534;2023-02-28T09:18:29;6.20;59.50
65046;DHT22;54657;52.022;5.534;2023-02-28T09:20:55;6.20;58.30
65046;DHT22;54657;52.022;5.534;2023-02-28T09:23:21;6.20;58.50
65046;DHT22;54657;52.022;5.534;2023-02-28T09:25:52;6.20;58.80
65046;DHT22;54657;52.022;5.534;2023-02-28T09:28:18;6.20;57.80
65046;DHT22;54657;52.022;5.534;2023-02-28T09:30:46;6.20;58.30
65046;DHT22;54657;52.022;5.534;2023-02-28T09:33:13;6.10;58.40
65046;DHT22;54657;52.022;5.534;2023-02-28T09:35:39;6.10;58.90
65046;DHT22;54657;52.022;5.534;2023-02-28T09:38:05;6.20;57.30
65046;DHT22;54657;52.022;5.534;2023-02-28T09:40:41;6.30;56.90
65046;DHT22;54657;52.022;5.534;2023-02-28T09:43:14;6.40;57.90
65046;DHT22;54657;52.022;5.534;2023-02-28T09:45:42;6.40;57.90
65046;DHT22;54657;52.022;5.534;2023-02-28T09:48:19;6.50;57.40
65046;DHT22;54657;52.022;5.534;2023-02-28T09:50:51;6.50;55.10
65046;DHT22;54657;52.022;5.534;2023-02-28T09:53:30;6.60;56.70
65046;DHT22;54657;52.022;5.534;2023-02-28T09:56:03;6.60;56.10
65046;DHT22;54657;52.022;5.534;2023-02-28T09:59:09;6.50;56.20
65046;DHT22;54657;52.022;5.534;2023-02-28T10:06:51;6.60;56.30
65046;DHT22;54657;52.022;5.534;2023-02-28T10:09:32;6.50;56.50
65046;DHT22;54657;52.022;5.534;2023-02-28T10:12:05;6.50;55.10
65046;DHT22;54657;52.022;5.534;2023-02-28T10:14:33;6.50;55.20
65046;DHT22;54657;52.022;5.534;2023-02-28T10:17:16;6.60;56.40
65046;DHT22;54657;52.022;5.534;2023-02-28T10:22:23;6.60;55.80
65046;DHT22;54657;52.022;5.534;2023-02-28T10:24:53;6.60;55.90
65046;DHT22;54657;52.022;5.534;2023-02-28T10:27:21;6.60;56.60
65046;DHT22;54657;52.022;5.534;2023-02-28T10:29:50;6.70;55.60
65046;DHT22;54657;52.022;5.534;2023-02-28T10:32:25;6.70;56.00
65046;DHT22;54657;52.022;5.534;2023-02-28T10:37:34;6.80;54.40
65046;DHT22;54657;52.022;5.534;2023-02-28T10:40:05;6.80;56.10
65046;DHT22;54657;52.022;5.534;2023-02-28T10:42:31;6.80;55.80
65046;DHT22;54657;52.022;5.534;2023-02-28T10:45:15;6.90;55.50
65046;DHT22;54657;52.022;5.534;2023-02-28T10:58:44;6.90;53.90
65046;DHT22;54657;52.022;5.534;2023-02-28T11:01:14;7.00;55.60
65046;DHT22;54657;52.022;5.534;2023-02-28T11:03:40;6.90;55.20
65046;DHT22;54657;52.022;5.534;2023-02-28T11:06:12;6.90;55.30
65046;DHT22;54657;52.022;5.534;2023-02-28T11:08:59;6.90;54.70
65046;DHT22;54657;52.022;5.534;2023-02-28T11:11:28;6.90;49.60
65046;DHT22;54657;52.022;5.534;2023-02-28T11:14:04;6.90;53.50
65046;DHT22;54657;52.022;5.534;2023-02-28T11:16:36;6.80;54.10
65046;DHT22;54657;52.022;5.534;2023-02-28T11:19:04;6.90;54.60
65046;DHT22;54657;52.022;5.534;2023-02-28T11:21:36;6.80;54.60
65046;DHT22;54657;52.022;5.534;2023-02-28T11:26:49;6.90;53.30
65046;DHT22;54657;52.022;5.534;2023-02-28T11:29:21;7.00;54.50
65046;DHT22;54657;52.022;5.534;2023-02-28T11:32:16;7.10;54.50
65046;DHT22;54657;52.022;5.534;2023-02-28T11:34:43;7.10;53.30
65046;DHT22;54657;52.022;5.534;2023-02-28T11:37:18;7.10;53.60
65046;DHT22;54657;52.022;5.534;2023-02-28T11:39:44;7.20;54.10
65046;DHT22;54657;52.022;5.534;2023-02-28T11:42:30;7.20;53.10
65046;DHT22;54657;52.022;5.534;2023-02-28T11:48:32;7.10;50.30
65046;DHT22;54657;52.022;5.534;2023-02-28T11:53:56;7.00;53.80
65046;DHT22;54657;52.022;5.534;2023-02-28T11:59:44;7.10;52.50
65046;DHT22;54657;52.022;5.534;2023-02-28T12:05:30;7.30;51.00
65046;DHT22;54657;52.022;5.534;2023-02-28T12:08:10;7.30;53.10
65046;DHT22;54657;52.022;5.534;2023-02-28T12:14:09;7.30;52.40
65046;DHT22;54657;52.022;5.534;2023-02-28T12:26:01;7.30;50.80
65046;DHT22;54657;52.022;5.534;2023-02-28T12:28:34;7.20;51.10
65046;DHT22;54657;52.022;5.534;2023-02-28T12:31:17;7.30;51.80
65046;DHT22;54657;52.022;5.534;2023-02-28T12:33:50;7.40;52.50
65046;DHT22;54657;52.022;5.534;2023-02-28T12:36:18;7.30;52.00
65046;DHT22;54657;52.022;5.534;2023-02-28T12:39:10;7.30;52.10
65046;DHT22;54657;52.022;5.534;2023-02-28T12:42:01;7.30;48.40
65046;DHT22;54657;52.022;5.534;2023-02-28T12:44:51;7.30;49.70
65046;DHT22;54657;52.022;5.534;2023-02-28T12:47:18;7.20;48.00
65046;DHT22;54657;52.022;5.534;2023-02-28T12:49:52;7.20;51.60
65046;DHT22;54657;52.022;5.534;2023-02-28T12:58:10;7.40;50.90
65046;DHT22;54657;52.022;5.534;2023-02-28T13:00:47;7.30;46.30
65046;DHT22;54657;52.022;5.534;2023-02-28T13:11:52;7.40;49.10
65046;DHT22;54657;52.022;5.534;2023-02-28T13:14:36;7.50;51.00
65046;DHT22;54657;52.022;5.534;2023-02-28T13:19:56;7.60;51.30
65046;DHT22;54657;52.022;5.534;2023-02-28T13:24:55;7.70;51.00
65046;DHT22;54657;52.022;5.534;2023-02-28T13:29:52;7.60;49.90
65046;DHT22;54657;52.022;5.534;2023-02-28T13:32:32;7.70;50.70
65046;DHT22;54657;52.022;5.534;2023-02-28T13:40:11;7.50;49.30
65046;DHT22;54657;52.022;5.534;2023-02-28T13:42:48;7.60;51.70
65046;DHT22;54657;52.022;5.534;2023-02-28T13:48:02;7.60;51.30
65046;DHT22;54657;52.022;5.534;2023-02-28T13:50:38;7.70;50.70
65046;DHT22;54657;52.022;5.534;2023-02-28T14:06:57;7.80;49.90
65046;DHT22;54657;52.022;5.534;2023-02-28T14:09:29;7.70;49.30
65046;DHT22;54657;52.022;5.534;2023-02-28T14:11:55;7.70;49.50
65046;DHT22;54657;52.022;5.534;2023-02-28T14:17:07;7.80;48.40
65046;DHT22;54657;52.022;5.534;2023-02-28T14:19:36;7.80;48.30
65046;DHT22;54657;52.022;5.534;2023-02-28T14:27:15;7.80;50.10
65046;DHT22;54657;52.022;5.534;2023-02-28T14:32:54;7.80;48.30
65046;DHT22;54657;52.022;5.534;2023-02-28T14:38:19;7.80;46.70
65046;DHT22;54657;52.022;5.534;2023-02-28T14:40:47;7.80;49.30
65046;DHT22;54657;52.022;5.534;2023-02-28T14:43:25;7.70;47.80
65046;DHT22;54657;52.022;5.534;2023-02-28T14:45:59;7.70;46.60
65046;DHT22;54657;52.022;5.534;2023-02-28T14:48:26;7.80;49.80
65046;DHT22;54657;52.022;5.534;2023-02-28T14:50:55;7.80;48.00
65046;DHT22;54657;52.022;5.534;2023-02-28T14:53:25;7.80;48.90
65046;DHT22;54657;52.022;5.534;2023-02-28T14:55:51;7.80;49.40
65046;DHT22;54657;52.022;5.534;2023-02-28T14:58:32;7.80;49.20
65046;DHT22;54657;52.022;5.534;2023-02-28T15:01:00;7.80;48.30
65046;DHT22;54657;52.022;5.534;2023-02-28T15:03:30;7.80;48.90
65046;DHT22;54657;52.022;5.534;2023-02-28T15:05:59;7.80;49.20
65046;DHT22;54657;52.022;5.534;2023-02-28T15:08:25;7.80;49.50
65046;DHT22;54657;52.022;5.534;2023-02-28T15:11:07;7.80;50.20
65046;DHT22;54657;52.022;5.534;2023-02-28T15:16:17;7.80;49.50
65046;DHT22;54657;52.022;5.534;2023-02-28T15:18:52;7.80;49.40
65046;DHT22;54657;52.022;5.534;2023-02-28T15:21:25;7.90;50.00
65046;DHT22;54657;52.022;5.534;2023-02-28T15:26:29;7.90;48.80
65046;DHT22;54657;52.022;5.534;2023-02-28T15:29:06;7.90;49.70
65046;DHT22;54657;52.022;5.534;2023-02-28T15:31:35;7.90;46.30
65046;DHT22;54657;52.022;5.534;2023-02-28T15:41:00;7.90;46.20
65046;DHT22;54657;52.022;5.534;2023-02-28T15:43:28;7.80;48.10
65046;DHT22;54657;52.022;5.534;2023-02-28T15:46:05;7.80;48.60
65046;DHT22;54657;52.022;5.534;2023-02-28T15:53:48;7.70;49.50
65046;DHT22;54657;52.022;5.534;2023-02-28T15:56:34;7.70;48.40
65046;DHT22;54657;52.022;5.534;2023-02-28T15:59:06;7.70;49.20
65046;DHT22;54657;52.022;5.534;2023-02-28T16:01:36;7.70;48.10
65046;DHT22;54657;52.022;5.534;2023-02-28T16:04:05;7.70;49.60
65046;DHT22;54657;52.022;5.534;2023-02-28T16:06:34;7.70;49.10
65046;DHT22;54657;52.022;5.534;2023-02-28T16:09:00;7.60;48.80
65046;DHT22;54657;52.022;5.534;2023-02-28T16:11:26;7.60;49.70
65046;DHT22;54657;52.022;5.534;2023-02-28T16:13:52;7.60;49.80
65046;DHT22;54657;52.022;5.534;2023-02-28T16:16:21;7.60;48.40
65046;DHT22;54657;52.022;5.534;2023-02-28T16:18:53;7.60;48.90
65046;DHT22;54657;52.022;5.534;2023-02-28T16:21:42;7.50;48.40
65046;DHT22;54657;52.022;5.534;2023-02-28T16:24:08;7.50;48.40
65046;DHT22;54657;52.022;5.534;2023-02-28T16:26:34;7.50;48.90
65046;DHT22;54657;52.022;5.534;2023-02-28T16:29:01;7.40;48.20
65046;DHT22;54657;52.022;5.534;2023-02-28T16:31:27;7.40;49.10
65046;DHT22;54657;52.022;5.534;2023-02-28T16:33:53;7.30;49.40
65046;DHT22;54657;52.022;5.534;2023-02-28T16:36:23;7.30;48.40
65046;DHT22;54657;52.022;5.534;2023-02-28T16:38:54;7.30;47.00
65046;DHT22;54657;52.022;5.534;2023-02-28T16:41:22;7.30;49.20
65046;DHT22;54657;52.022;5.534;2023-02-28T16:47:38;7.30;49.60
65046;DHT22;54657;52.022;5.534;2023-02-28T16:50:28;7.20;49.90
65046;DHT22;54657;52.022;5.534;2023-02-28T16:52:55;7.20;49.30
65046;DHT22;54657;52.022;5.534;2023-02-28T16:55:24;7.20;50.10
65046;DHT22;54657;52.022;5.534;2023-02-28T16:58:49;7.20;49.40
65046;DHT22;54657;52.022;5.534;2023-02-28T17:01:26;7.20;49.50
65046;DHT22;54657;52.022;5.534;2023-02-28T17:04:01;7.20;49.40
65046;DHT22;54657;52.022;5.534;2023-02-28T17:06:54;7.20;48.60
65046;DHT22;54657;52.022;5.534;2023-02-28T17:12:30;7.10;49.50
65046;DHT22;54657;52.022;5.534;2023-02-28T17:14:56;7.00;49.70
65046;DHT22;54657;52.022;5.534;2023-02-28T17:17:29;7.00;49.80
65046;DHT22;54657;52.022;5.534;2023-02-28T17:20:01;7.00;50.00
65046;DHT22;54657;52.022;5.534;2023-02-28T17:22:42;7.00;49.00
65046;DHT22;54657;52.022;5.534;2023-02-28T17:25:41;7.00;49.40
65046;DHT22;54657;52.022;5.534;2023-02-28T17:28:21;6.90;49.50
65046;DHT22;54657;52.022;5.534;2023-02-28T17:30:47;6.90;49.40
65046;DHT22;54657;52.022;5.534;2023-02-28T17:33:21;6.80;49.40
65046;DHT22;54657;52.022;5.534;2023-02-28T17:36:03;6.80;49.10
65046;DHT22;54657;52.022;5.534;2023-02-28T17:38:40;6.80;49.90
65046;DHT22;54657;52.022;5.534;2023-02-28T17:41:19;6.80;50.00
65046;DHT22;54657;52.022;5.534;2023-02-28T17:43:58;6.80;49.10
65046;DHT22;54657;52.022;5.534;2023-02-28T17:46:24;6.80;50.10
65046;DHT22;54657;52.022;5.534;2023-02-28T17:49:05;6.70;50.20
65046;DHT22;54657;52.022;5.534;2023-02-28T17:51:39;6.70;50.10
65046;DHT22;54657;52.022;5.534;2023-02-28T17:54:37;6.60;50.30
65046;DHT22;54657;52.022;5.534;2023-02-28T17:57:12;6.60;48.80
65046;DHT22;54657;52.022;5.534;2023-02-28T18:00:03;6.50;50.10
65046;DHT22;54657;52.022;5.534;2023-02-28T18:02:35;6.50;49.60
65046;DHT22;54657;52.022;5.534;2023-02-28T18:05:09;6.50;50.90
65046;DHT22;54657;52.022;5.534;2023-02-28T18:08:10;6.40;50.80
65046;DHT22;54657;52.022;5.534;2023-02-28T18:10:37;6.40;50.10
65046;DHT22;54657;52.022;5.534;2023-02-28T18:15:28;6.40;50.70
65046;DHT22;54657;52.022;5.534;2023-02-28T18:17:56;6.50;50.60
65046;DHT22;54657;52.022;5.534;2023-02-28T18:20:50;6.40;50.70
65046;DHT22;54657;52.022;5.534;2023-02-28T18:23:24;6.40;50.40
65046;DHT22;54657;52.022;5.534;2023-02-28T18:25:50;6.40;50.40
65046;DHT22;54657;52.022;5.534;2023-02-28T18:28:18;6.30;51.00
65046;DHT22;54657;52.022;5.534;2023-02-28T18:30:46;6.30;51.00
65046;DHT22;54657;52.022;5.534;2023-02-28T18:33:12;6.40;50.90
65046;DHT22;54657;52.022;5.534;2023-02-28T18:35:40;6.40;50.70
65046;DHT22;54657;52.022;5.534;2023-02-28T18:38:23;6.40;50.90
65046;DHT22;54657;52.022;5.534;2023-02-28T18:40:58;6.40;50.80
65046;DHT22;54657;52.022;5.534;2023-02-28T18:43:31;6.40;51.50
65046;DHT22;54657;52.022;5.534;2023-02-28T18:50:03;6.20;51.10
65046;DHT22;54657;52.022;5.534;2023-02-28T18:53:19;6.10;51.10